createdAt,value
2023-01-19T00:00:54.983Z,13.75
2023-01-19T00:03:22.219Z,13.69
2023-01-19T00:05:49.358Z,13.67
2023-01-19T00:08:17.028Z,13.59
2023-01-19T00:10:47.128Z,13.55
2023-01-19T00:13:15.729Z,13.47
2023-01-19T00:15:43.688Z,13.42
2023-01-19T00:18:11.122Z,13.36
2023-01-19T00:20:42.009Z,13.30
2023-01-19T00:23:09.633Z,13.26
2023-01-19T00:25:42.763Z,13.23
2023-01-19T00:28:15.444Z,13.14
2023-01-19T00:30:43.615Z,13.07
2023-01-19T00:33:13.906Z,13.05
2023-01-19T00:35:42.785Z,13.04
2023-01-19T00:38:11.009Z,13.03
2023-01-19T00:40:38.307Z,13.00
2023-01-19T00:43:05.385Z,12.96
2023-01-19T00:45:34.044Z,12.89
2023-01-19T00:48:01.440Z,12.81
2023-01-19T00:50:30.030Z,12.72
2023-01-19T00:52:58.281Z,12.69
2023-01-19T00:55:25.578Z,12.67
2023-01-19T00:57:52.592Z,12.62
2023-01-19T01:00:21.025Z,12.56
2023-01-19T01:02:49.727Z,12.52
2023-01-19T01:05:17.171Z,12.45
2023-01-19T01:07:49.591Z,12.39
2023-01-19T01:10:23.042Z,12.37
2023-01-19T01:13:20.345Z,12.33
2023-01-19T01:15:37.776Z,12.29
2023-01-19T01:18:04.889Z,12.25
2023-01-19T01:20:33.850Z,12.21
2023-01-19T01:23:01.878Z,12.18
2023-01-19T01:25:31.220Z,12.16
2023-01-19T01:27:58.293Z,12.09
2023-01-19T01:30:25.327Z,12.11
2023-01-19T01:32:52.502Z,12.10
2023-01-19T01:35:19.585Z,12.10
2023-01-19T01:37:46.633Z,12.08
2023-01-19T01:40:16.761Z,12.04
2023-01-19T01:42:45.591Z,12.03
2023-01-19T01:45:32.942Z,12.01
2023-01-19T01:48:10.163Z,12.00
2023-01-19T01:51:03.394Z,11.96
2023-01-19T01:53:33.797Z,11.96
2023-01-19T01:56:03.000Z,11.93
2023-01-19T01:58:31.729Z,11.89
2023-01-19T02:01:17.288Z,11.89
2023-01-19T02:03:44.563Z,11.89
2023-01-19T02:06:13.798Z,11.88
2023-01-19T02:09:17.486Z,11.92
2023-01-19T02:12:03.233Z,11.93
2023-01-19T02:14:30.277Z,11.91
2023-01-19T02:16:57.426Z,11.91
2023-01-19T02:19:34.028Z,11.92
2023-01-19T02:22:06.839Z,11.91
2023-01-19T02:24:34.203Z,11.88
2023-01-19T02:27:01.883Z,11.87
2023-01-19T02:29:28.978Z,11.86
2023-01-19T02:31:57.431Z,11.86
2023-01-19T02:34:24.458Z,11.83
2023-01-19T02:36:54.569Z,11.80
2023-01-19T02:39:45.551Z,11.76
2023-01-19T02:42:24.158Z,11.73
2023-01-19T02:44:53.805Z,11.69
2023-01-19T02:47:20.953Z,11.67
2023-01-19T02:50:00.945Z,11.66
2023-01-19T02:52:28.575Z,11.67
2023-01-19T02:55:19.511Z,11.69
2023-01-19T02:57:55.269Z,11.70
2023-01-19T03:00:44.916Z,11.64
2023-01-19T03:03:40.748Z,11.67
2023-01-19T03:06:27.638Z,11.63
2023-01-19T03:09:23.867Z,11.62
2023-01-19T03:12:03.525Z,11.58
2023-01-19T03:14:34.247Z,11.57
2023-01-19T03:17:05.457Z,11.49
2023-01-19T03:19:37.791Z,11.47
2023-01-19T03:22:09.917Z,11.44
2023-01-19T03:24:40.730Z,11.36
2023-01-19T03:27:17.728Z,11.37
2023-01-19T03:29:52.488Z,11.38
2023-01-19T03:32:32.679Z,11.33
2023-01-19T03:35:03.431Z,11.28
2023-01-19T03:37:32.451Z,11.21
2023-01-19T03:39:59.735Z,11.20
2023-01-19T03:42:28.474Z,11.16
2023-01-19T03:44:57.464Z,11.12
2023-01-19T03:47:25.771Z,11.13
2023-01-19T03:49:53.738Z,11.10
2023-01-19T03:52:33.363Z,11.07
2023-01-19T03:55:02.394Z,11.08
2023-01-19T03:57:29.631Z,11.08
2023-01-19T03:59:57.165Z,11.12
2023-01-19T04:02:24.952Z,11.11
2023-01-19T04:04:52.107Z,11.09
2023-01-19T04:07:19.186Z,11.06
2023-01-19T04:09:46.358Z,11.03
2023-01-19T04:12:13.343Z,11.06
2023-01-19T04:14:40.377Z,11.03
2023-01-19T04:17:07.297Z,11.03
2023-01-19T04:19:34.521Z,11.04
2023-01-19T04:22:02.126Z,11.01
2023-01-19T04:24:29.213Z,10.99
2023-01-19T04:26:56.190Z,10.97
2023-01-19T04:29:24.568Z,10.94
2023-01-19T04:31:51.556Z,10.90
2023-01-19T04:34:18.676Z,10.79
2023-01-19T04:36:46.845Z,10.85
2023-01-19T04:39:13.916Z,10.87
2023-01-19T04:41:40.910Z,10.87
2023-01-19T04:44:07.970Z,10.88
2023-01-19T04:46:35.213Z,10.85
2023-01-19T04:49:02.299Z,10.84
2023-01-19T04:51:29.734Z,10.79
2023-01-19T04:53:57.899Z,10.73
2023-01-19T04:56:24.969Z,10.69
2023-01-19T04:58:52.121Z,10.65
2023-01-19T05:01:19.193Z,10.58
2023-01-19T05:03:46.782Z,10.53
2023-01-19T05:06:13.882Z,10.56
2023-01-19T05:08:40.920Z,10.53
2023-01-19T05:11:08.096Z,10.53
2023-01-19T05:13:35.093Z,10.53
2023-01-19T05:16:02.632Z,10.51
2023-01-19T05:18:36.061Z,10.55
2023-01-19T05:21:03.724Z,10.54
2023-01-19T05:23:32.844Z,10.52
2023-01-19T05:26:02.141Z,10.47
2023-01-19T05:28:30.967Z,10.46
2023-01-19T05:30:58.244Z,10.43
2023-01-19T05:33:26.429Z,10.42
2023-01-19T05:35:54.578Z,10.41
2023-01-19T05:38:34.325Z,10.35
2023-01-19T05:41:02.663Z,10.33
2023-01-19T05:43:29.673Z,10.28
2023-01-19T05:45:56.703Z,10.26
2023-01-19T05:48:23.933Z,10.24
2023-01-19T05:50:50.951Z,10.23
2023-01-19T05:53:18.057Z,10.20
2023-01-19T05:55:45.157Z,10.14
2023-01-19T05:58:12.228Z,10.10
2023-01-19T06:00:39.293Z,10.12
2023-01-19T06:03:06.767Z,10.07
2023-01-19T06:05:34.175Z,10.00
2023-01-19T06:08:02.564Z,9.99
2023-01-19T06:10:29.747Z,10.03
2023-01-19T06:12:57.261Z,9.99
2023-01-19T06:15:24.324Z,9.98
2023-01-19T06:17:51.383Z,10.02
2023-01-19T06:20:18.546Z,10.02
2023-01-19T06:22:45.568Z,10.06
2023-01-19T06:25:12.667Z,10.09
2023-01-19T06:27:43.827Z,10.16
2023-01-19T06:30:11.509Z,10.20
2023-01-19T06:32:38.662Z,10.23
2023-01-19T06:35:07.989Z,10.27
2023-01-19T06:37:35.724Z,10.32
2023-01-19T06:40:03.016Z,10.38
2023-01-19T06:42:30.176Z,10.45
2023-01-19T06:44:57.156Z,10.56
2023-01-19T06:47:24.164Z,10.65
2023-01-19T06:49:51.173Z,10.78
2023-01-19T06:52:20.048Z,10.86
2023-01-19T06:54:47.629Z,10.93
2023-01-19T06:57:16.944Z,10.94
2023-01-19T06:59:44.424Z,11.00
2023-01-19T07:02:26.695Z,11.02
2023-01-19T07:04:56.716Z,11.08
2023-01-19T07:07:23.839Z,11.17
2023-01-19T07:09:51.447Z,11.26
2023-01-19T07:12:21.176Z,11.38
2023-01-19T07:14:49.652Z,11.43
2023-01-19T07:17:16.986Z,11.51
2023-01-19T07:19:44.025Z,11.57
2023-01-19T07:22:11.042Z,11.65
2023-01-19T07:24:38.405Z,11.69
2023-01-19T07:27:05.680Z,11.77
2023-01-19T07:29:32.885Z,11.85
2023-01-19T07:32:00.177Z,11.97
2023-01-19T07:34:27.279Z,12.04
2023-01-19T07:36:56.165Z,12.09
2023-01-19T07:39:23.211Z,12.15
2023-01-19T07:41:50.306Z,12.22
2023-01-19T07:44:17.305Z,12.34
2023-01-19T07:46:44.397Z,12.47
2023-01-19T07:49:11.883Z,12.39
2023-01-19T07:51:39.087Z,12.38
2023-01-19T07:54:08.703Z,12.39
2023-01-19T07:56:35.781Z,12.46
2023-01-19T07:59:02.970Z,12.44
2023-01-19T08:01:30.433Z,12.48
2023-01-19T08:03:57.652Z,12.56
2023-01-19T08:06:30.407Z,12.59
2023-01-19T08:08:57.600Z,12.64
2023-01-19T08:11:24.556Z,12.70
2023-01-19T08:13:51.905Z,12.84
2023-01-19T08:16:19.175Z,12.81
2023-01-19T08:18:49.305Z,12.77
2023-01-19T08:21:16.775Z,12.63
2023-01-19T08:23:44.546Z,12.50
2023-01-19T08:26:27.577Z,12.39
2023-01-19T08:28:55.183Z,12.35
2023-01-19T08:31:24.748Z,12.40
2023-01-19T08:33:52.572Z,12.50
2023-01-19T08:36:20.312Z,12.57
2023-01-19T08:38:47.931Z,12.58
2023-01-19T08:41:17.138Z,12.59
2023-01-19T08:43:47.733Z,12.80
2023-01-19T08:46:17.777Z,13.13
2023-01-19T08:48:51.084Z,13.30
2023-01-19T08:51:18.701Z,13.35
2023-01-19T08:53:45.745Z,13.38
2023-01-19T08:56:14.036Z,13.47
2023-01-19T08:58:43.303Z,13.38
2023-01-19T09:01:11.661Z,13.35
2023-01-19T09:03:38.806Z,13.42
2023-01-19T09:06:07.364Z,13.53
2023-01-19T09:08:34.669Z,13.72
2023-01-19T09:11:01.869Z,13.66
2023-01-19T09:13:29.213Z,13.72
2023-01-19T09:15:56.510Z,14.00
2023-01-19T09:18:23.946Z,14.25
2023-01-19T09:20:51.585Z,14.38
2023-01-19T09:23:22.811Z,14.26
2023-01-19T09:25:55.722Z,14.34
2023-01-19T09:28:22.885Z,14.54
2023-01-19T09:30:50.143Z,14.70
2023-01-19T09:33:19.674Z,14.60
2023-01-19T09:35:48.657Z,14.31
2023-01-19T09:38:16.978Z,14.27
2023-01-19T09:41:04.799Z,14.24
2023-01-19T09:43:47.614Z,14.29
2023-01-19T09:46:33.492Z,14.10
2023-01-19T09:49:07.892Z,14.27
2023-01-19T09:51:41.374Z,14.20
2023-01-19T09:54:15.938Z,14.26
2023-01-19T09:56:45.449Z,14.18
2023-01-19T09:59:20.509Z,14.26
2023-01-19T10:02:06.367Z,14.24
2023-01-19T10:04:55.247Z,14.07
2023-01-19T10:07:40.668Z,14.16
2023-01-19T10:10:19.950Z,14.23
2023-01-19T10:13:08.826Z,14.15
2023-01-19T10:16:03.215Z,14.29
2023-01-19T10:18:47.953Z,14.49
2023-01-19T10:21:26.518Z,14.54
2023-01-19T10:24:22.077Z,14.51
2023-01-19T10:26:52.673Z,14.26
2023-01-19T10:29:22.338Z,14.17
2023-01-19T10:31:52.833Z,14.10
2023-01-19T10:34:23.178Z,14.10
2023-01-19T10:37:00.595Z,14.13
2023-01-19T10:39:27.855Z,14.32
2023-01-19T10:41:59.189Z,14.20
2023-01-19T10:44:29.481Z,14.25
2023-01-19T10:47:00.004Z,14.40
2023-01-19T10:49:37.841Z,14.25
2023-01-19T10:52:19.318Z,14.35
2023-01-19T10:54:48.643Z,14.40
2023-01-19T10:57:28.170Z,14.45
2023-01-19T10:59:55.445Z,14.38
2023-01-19T11:02:29.282Z,14.50
2023-01-19T11:04:59.316Z,14.51
2023-01-19T11:07:26.494Z,14.60
2023-01-19T11:10:24.219Z,14.63
2023-01-19T11:13:01.527Z,14.65
2023-01-19T11:15:33.374Z,14.62
2023-01-19T11:18:02.485Z,14.66
2023-01-19T11:20:36.035Z,14.51
2023-01-19T11:23:15.004Z,14.17
2023-01-19T11:25:47.214Z,13.62
2023-01-19T11:28:19.533Z,13.35
2023-01-19T11:31:16.846Z,13.30
2023-01-19T11:33:52.178Z,13.37
2023-01-19T11:36:22.761Z,13.52
2023-01-19T11:38:57.109Z,13.59
2023-01-19T11:41:24.373Z,13.90
2023-01-19T11:43:58.140Z,14.00
2023-01-19T11:46:31.363Z,14.18
2023-01-19T11:49:20.259Z,14.37
2023-01-19T11:52:00.213Z,14.48
2023-01-19T11:54:33.373Z,14.50
2023-01-19T11:57:00.801Z,14.57
2023-01-19T11:59:28.687Z,14.70
2023-01-19T12:01:59.467Z,14.63
2023-01-19T12:04:40.610Z,14.74
2023-01-19T12:07:10.928Z,14.73
2023-01-19T12:09:48.985Z,14.60
2023-01-19T12:12:32.178Z,14.53
2023-01-19T12:15:10.717Z,14.47
2023-01-19T12:17:46.414Z,14.34
2023-01-19T12:20:26.886Z,14.31
2023-01-19T12:23:38.496Z,14.27
2023-01-19T12:26:17.606Z,14.32
2023-01-19T12:28:48.028Z,14.26
2023-01-19T12:31:17.867Z,14.31
2023-01-19T12:33:45.125Z,14.22
2023-01-19T12:36:41.165Z,14.27
2023-01-19T12:39:19.319Z,14.22
2023-01-19T12:41:47.439Z,14.32
2023-01-19T12:44:19.950Z,14.50
2023-01-19T12:47:03.659Z,14.61
2023-01-19T12:49:39.912Z,14.44
2023-01-19T12:52:28.844Z,14.19
2023-01-19T12:55:13.227Z,14.05
2023-01-19T12:57:59.008Z,13.88
2023-01-19T13:00:26.222Z,13.85
2023-01-19T13:03:04.765Z,13.90
2023-01-19T13:05:33.102Z,13.93
2023-01-19T13:08:04.981Z,13.93
2023-01-19T13:10:55.937Z,13.98
2023-01-19T13:13:27.802Z,13.99
2023-01-19T13:15:56.877Z,14.01
2023-01-19T13:18:30.264Z,14.01
2023-01-19T13:21:07.443Z,14.00
2023-01-19T13:23:52.697Z,13.97
2023-01-19T13:26:22.449Z,13.96
2023-01-19T13:29:12.517Z,13.93
2023-01-19T13:31:42.846Z,13.85
2023-01-19T13:34:15.487Z,13.78
2023-01-19T13:36:46.563Z,13.66
2023-01-19T13:39:38.173Z,13.56
2023-01-19T13:42:24.622Z,13.42
2023-01-19T13:44:54.848Z,13.39
2023-01-19T13:47:25.447Z,13.39
2023-01-19T13:49:57.473Z,13.37
2023-01-19T13:52:31.515Z,13.29
2023-01-19T13:55:04.778Z,13.27
2023-01-19T13:57:41.656Z,13.17
2023-01-19T14:00:12.307Z,13.08
2023-01-19T14:02:58.980Z,13.03
2023-01-19T14:05:30.907Z,12.75
2023-01-19T14:08:18.320Z,12.67
2023-01-19T14:10:54.355Z,12.74
2023-01-19T14:13:25.424Z,12.70
2023-01-19T14:15:56.088Z,12.74
2023-01-19T14:18:30.253Z,12.75
2023-01-19T14:21:14.829Z,12.79
2023-01-19T14:23:44.922Z,12.82
2023-01-19T14:26:49.886Z,12.80
2023-01-19T14:29:32.729Z,12.68
2023-01-19T14:32:21.155Z,12.52
2023-01-19T14:34:51.305Z,12.47
2023-01-19T14:37:24.701Z,12.38
2023-01-19T14:39:55.331Z,12.42
2023-01-19T14:42:29.196Z,12.42
2023-01-19T14:44:59.148Z,12.41
2023-01-19T14:47:37.616Z,12.42
2023-01-19T14:50:26.127Z,12.43
2023-01-19T14:53:00.548Z,12.43
2023-01-19T14:55:45.119Z,12.44
2023-01-19T14:58:14.298Z,12.46
2023-01-19T15:00:43.021Z,12.40
2023-01-19T15:03:10.551Z,12.49
2023-01-19T15:05:44.364Z,12.53
2023-01-19T15:08:20.432Z,12.56
2023-01-19T15:10:47.476Z,12.60
2023-01-19T15:13:25.845Z,12.54
2023-01-19T15:15:53.616Z,12.47
2023-01-19T15:18:24.542Z,12.40
2023-01-19T15:20:52.357Z,12.34
2023-01-19T15:23:19.642Z,12.24
2023-01-19T15:25:46.885Z,12.17
2023-01-19T15:28:17.795Z,12.13
2023-01-19T15:30:45.221Z,12.12
2023-01-19T15:33:21.432Z,12.06
2023-01-19T15:35:49.268Z,11.99
2023-01-19T15:38:16.407Z,11.97
2023-01-19T15:40:43.933Z,11.94
2023-01-19T15:43:11.596Z,11.87
2023-01-19T15:45:39.631Z,11.77
2023-01-19T15:48:08.795Z,11.73
2023-01-19T15:50:39.075Z,11.65
2023-01-19T15:53:07.444Z,11.56
2023-01-19T15:55:34.725Z,11.50
2023-01-19T15:58:01.926Z,11.47
2023-01-19T16:00:30.510Z,11.39
2023-01-19T16:02:58.108Z,11.38
2023-01-19T16:05:33.979Z,11.36
2023-01-19T16:08:10.023Z,11.33
2023-01-19T16:10:37.063Z,11.32
2023-01-19T16:13:04.705Z,11.25
2023-01-19T16:15:34.355Z,11.16
2023-01-19T16:18:01.473Z,11.14
2023-01-19T16:20:28.632Z,11.07
2023-01-19T16:22:58.582Z,11.01
2023-01-19T16:25:33.214Z,10.96
2023-01-19T16:28:00.467Z,10.94
2023-01-19T16:30:27.519Z,10.96
2023-01-19T16:32:54.604Z,10.92
2023-01-19T16:35:21.834Z,10.87
2023-01-19T16:37:51.937Z,10.85
2023-01-19T16:40:20.500Z,10.85
2023-01-19T16:42:47.607Z,10.86
2023-01-19T16:45:14.921Z,10.85
2023-01-19T16:47:42.097Z,10.87
2023-01-19T16:50:12.118Z,10.87
2023-01-19T16:52:40.587Z,10.87
2023-01-19T16:55:09.644Z,10.86
2023-01-19T16:57:39.185Z,10.82
2023-01-19T17:00:09.561Z,10.80
2023-01-19T17:02:36.885Z,10.81
2023-01-19T17:05:04.771Z,10.81
2023-01-19T17:07:31.829Z,10.81
2023-01-19T17:09:59.024Z,10.79
2023-01-19T17:12:25.985Z,10.80
2023-01-19T17:14:53.132Z,10.78
2023-01-19T17:17:20.116Z,10.78
2023-01-19T17:19:47.199Z,10.75
2023-01-19T17:22:15.174Z,10.72
2023-01-19T17:24:42.570Z,10.67
2023-01-19T17:27:10.323Z,10.62
2023-01-19T17:29:37.354Z,10.59
2023-01-19T17:32:04.562Z,10.58
2023-01-19T17:34:31.720Z,10.55
2023-01-19T17:37:03.169Z,10.51
2023-01-19T17:39:30.642Z,10.48
2023-01-19T17:41:57.817Z,10.46
2023-01-19T17:44:25.224Z,10.44
2023-01-19T17:46:52.368Z,10.41
2023-01-19T17:49:19.612Z,10.41
2023-01-19T17:51:51.940Z,10.41
2023-01-19T17:54:19.325Z,10.39
2023-01-19T17:56:46.337Z,10.38
2023-01-19T17:59:13.517Z,10.33
2023-01-19T18:01:41.484Z,10.31
2023-01-19T18:04:09.647Z,10.23
2023-01-19T18:06:38.167Z,10.20
2023-01-19T18:09:07.639Z,10.16
2023-01-19T18:11:35.617Z,10.21
2023-01-19T18:14:03.028Z,10.25
2023-01-19T18:16:30.855Z,10.30
2023-01-19T18:18:58.037Z,10.36
2023-01-19T18:21:28.312Z,10.40
2023-01-19T18:24:01.463Z,10.40
2023-01-19T18:26:30.019Z,10.41
2023-01-19T18:28:58.314Z,10.40
2023-01-19T18:31:27.069Z,10.37
2023-01-19T18:33:54.488Z,10.36
2023-01-19T18:36:22.146Z,10.33
2023-01-19T18:38:49.769Z,10.30
2023-01-19T18:41:19.356Z,10.21
2023-01-19T18:43:47.088Z,10.10
2023-01-19T18:46:15.363Z,9.99
2023-01-19T18:48:42.440Z,9.88
2023-01-19T18:51:14.734Z,9.79
2023-01-19T18:53:43.831Z,9.71
2023-01-19T18:56:15.564Z,9.63
2023-01-19T18:58:43.707Z,9.56
2023-01-19T19:01:37.132Z,9.50
2023-01-19T19:04:04.518Z,9.44
2023-01-19T19:06:31.481Z,9.42
2023-01-19T19:08:59.676Z,9.41
2023-01-19T19:11:27.379Z,9.38
2023-01-19T19:13:56.940Z,9.34
2023-01-19T19:16:24.162Z,9.31
2023-01-19T19:18:51.600Z,9.30
2023-01-19T19:21:20.754Z,9.24
2023-01-19T19:23:52.648Z,9.11
2023-01-19T19:26:20.419Z,9.04
2023-01-19T19:28:48.807Z,8.97
2023-01-19T19:31:20.816Z,8.90
2023-01-19T19:33:48.997Z,8.87
2023-01-19T19:36:16.456Z,8.82
2023-01-19T19:38:47.569Z,8.78
2023-01-19T19:41:23.170Z,8.75
2023-01-19T19:43:50.645Z,8.71
2023-01-19T19:46:20.259Z,8.67
2023-01-19T19:48:48.331Z,8.66
2023-01-19T19:51:22.874Z,8.67
2023-01-19T19:53:51.992Z,8.60
2023-01-19T19:56:23.662Z,8.59
2023-01-19T19:58:52.380Z,8.60
2023-01-19T20:01:24.116Z,8.57
2023-01-19T20:03:53.888Z,8.60
2023-01-19T20:06:24.103Z,8.59
2023-01-19T20:08:53.909Z,8.55
2023-01-19T20:11:24.378Z,8.55
2023-01-19T20:13:51.950Z,8.51
2023-01-19T20:16:22.246Z,8.51
2023-01-19T20:18:51.774Z,8.53
2023-01-19T20:21:24.922Z,8.54
2023-01-19T20:24:02.207Z,8.53
2023-01-19T20:26:35.525Z,8.54
2023-01-19T20:29:06.897Z,8.57
2023-01-19T20:31:46.546Z,8.60
2023-01-19T20:34:18.042Z,8.60
2023-01-19T20:36:49.749Z,8.56
2023-01-19T20:39:18.917Z,8.53
2023-01-19T20:41:45.947Z,8.53
2023-01-19T20:44:16.302Z,8.53
2023-01-19T20:46:43.533Z,8.51
2023-01-19T20:49:10.924Z,8.52
2023-01-19T20:51:41.833Z,8.47
2023-01-19T20:54:11.045Z,8.41
2023-01-19T20:56:39.125Z,8.39
2023-01-19T20:59:07.235Z,8.37
2023-01-19T21:01:34.855Z,8.33
2023-01-19T21:04:02.100Z,8.32
2023-01-19T21:06:29.402Z,8.25
2023-01-19T21:08:57.712Z,8.22
2023-01-19T21:11:25.704Z,8.18
2023-01-19T21:13:56.301Z,8.15
2023-01-19T21:16:26.217Z,8.11
2023-01-19T21:18:53.518Z,8.09
2023-01-19T21:21:30.543Z,8.09
2023-01-19T21:24:01.455Z,8.09
2023-01-19T21:26:33.576Z,8.07
2023-01-19T21:29:05.416Z,8.07
2023-01-19T21:31:32.552Z,8.03
2023-01-19T21:34:22.735Z,7.98
2023-01-19T21:36:49.873Z,7.94
2023-01-19T21:39:21.773Z,7.91
2023-01-19T21:41:48.998Z,7.87
2023-01-19T21:44:22.131Z,7.84
2023-01-19T21:46:52.160Z,7.81
2023-01-19T21:49:22.915Z,7.79
2023-01-19T21:51:53.033Z,7.79
2023-01-19T21:54:22.844Z,7.79
2023-01-19T21:56:49.931Z,7.79
2023-01-19T21:59:18.504Z,7.80
2023-01-19T22:01:47.232Z,7.80
2023-01-19T22:04:17.168Z,7.80
2023-01-19T22:06:44.410Z,7.84
2023-01-19T22:09:11.408Z,7.83
2023-01-19T22:11:47.132Z,7.82
2023-01-19T22:14:14.149Z,7.78
2023-01-19T22:16:41.251Z,7.75
2023-01-19T22:19:12.825Z,7.72
2023-01-19T22:21:40.247Z,7.74
2023-01-19T22:24:07.801Z,7.71
2023-01-19T22:26:37.067Z,7.67
2023-01-19T22:29:05.966Z,7.64
2023-01-19T22:31:33.078Z,7.57
2023-01-19T22:34:00.171Z,7.51
2023-01-19T22:36:28.841Z,7.57
2023-01-19T22:39:01.391Z,7.52
2023-01-19T22:41:32.149Z,7.51
2023-01-19T22:44:02.490Z,7.44
2023-01-19T22:46:32.331Z,7.44
2023-01-19T22:48:59.948Z,7.43
2023-01-19T22:51:29.635Z,7.38
2023-01-19T22:53:57.094Z,7.42
2023-01-19T22:56:26.733Z,7.35
2023-01-19T22:58:54.524Z,7.30
2023-01-19T23:01:33.793Z,7.19
2023-01-19T23:04:02.440Z,7.15
2023-01-19T23:06:31.891Z,7.10
2023-01-19T23:09:01.145Z,7.08
2023-01-19T23:11:34.277Z,7.10
2023-01-19T23:14:04.152Z,7.06
2023-01-19T23:16:31.206Z,7.09
2023-01-19T23:18:58.743Z,7.07
2023-01-19T23:21:28.740Z,7.03
2023-01-19T23:23:57.857Z,7.03
2023-01-19T23:26:25.635Z,7.03
2023-01-19T23:28:59.139Z,7.03
2023-01-19T23:31:29.059Z,7.01
2023-01-19T23:33:58.876Z,7.01
2023-01-19T23:36:28.810Z,7.01
2023-01-19T23:38:57.822Z,7.02
2023-01-19T23:41:26.594Z,7.02
2023-01-19T23:43:53.706Z,7.05
2023-01-19T23:46:21.803Z,7.07
2023-01-19T23:48:49.328Z,7.12
2023-01-19T23:51:23.189Z,7.12
2023-01-19T23:53:51.217Z,7.17
2023-01-19T23:56:24.679Z,7.21
2023-01-19T23:59:02.834Z,7.23
